Latest Weather Observations for Middle Percy Island

IDQ60801

Issued at 6:32 am EST Monday 30 March 2015 (issued every 30 minutes, with the page automatically refreshed every 10 minutes)

About weather observations | Map of weather stations | Latest weather observations for QLD | Other Formats
Station Details ID: 200001 Name: MIDDLE PERCY ISLAND Lat: -21.66 Lon: 150.27 Height: 208.7 m
Data from the previous 72 hours. | See also: Recent months at Middle Percy Island
Date/Time
EST
Temp
°C
App
Temp
°C
Dew
Point
Rel
Hum
%
Delta-T
°C
Wind Press
QNH
hPa
Press
MSL
hPa
Rain
since 9 am
mm
Dir
 
Spd
km/h
Gust
km/h
Spd
kts
Gust
kts
30/06:30am 23.6 26.0 22.2 92 0.9 ENE 13 24 7 13 1019.4 1018.2 8.8
30/06:00am 23.4 25.3 22.0 92 0.9 ENE 15 35 8 19 1019.3 1018.1 8.4
30/05:30am 23.9 26.3 22.2 90 1.1 ENE 13 30 7 16 1019.1 1017.9 8.4
30/05:00am 24.1 25.0 22.0 88 1.4 E 20 33 11 18 1018.7 1017.5 8.4
30/04:30am 23.7 25.6 22.0 90 1.1 ENE 15 28 8 15 1018.5 1017.3 8.4
30/04:00am 24.1 23.8 21.8 87 1.5 ESE 26 35 14 19 1018.3 1017.1 8.0
30/03:30am 23.4 24.2 21.8 91 1.1 ESE 20 30 11 16 1018.2 1017.0 8.0
30/03:00am 24.7 26.9 21.2 81 2.3 E 11 19 6 10 1018.3 1017.1 7.8
30/02:30am 24.6 26.2 21.5 83 2.1 E 15 26 8 14 1018.5 1017.3 7.8
30/02:00am 24.2 24.9 21.5 85 1.8 E 20 39 11 21 1018.6 1017.4 7.8
30/01:30am 24.6 24.4 21.3 82 2.2 E 24 33 13 18 1019.0 1017.8 7.6
30/01:00am 24.5 24.4 21.4 83 2.1 ESE 24 33 13 18 1019.3 1018.1 7.6
30/12:00am 23.6 24.3 21.5 88 1.4 ESE 20 32 11 17 1020.1 1019.0 7.6
 
Date/Time
EST
Temp
°C
App
Temp
°C
Dew
Point
Rel
Hum
%
Delta-T
°C
Wind Press
QNH
hPa
Press
MSL
hPa
Rain
since 9 am
mm
Dir
 
Spd
km/h
Gust
km/h
Spd
kts
Gust
kts
29/11:30pm 23.6 24.1 22.0 91 1.1 ESE 22 32 12 17 1020.5 1019.3 7.6
29/11:00pm 23.6 24.5 22.6 94 0.7 ESE 22 30 12 16 1020.8 1019.6 7.6
29/10:30pm 23.0 23.5 22.7 98 0.2 ESE 24 35 13 19 1021.1 1019.9 7.6
29/10:00pm 21.4 19.0 20.0 92 0.9 ESE 32 63 17 34 1020.9 1019.7 4.6
29/09:57pm 22.4 21.0 20.5 89 1.2 SE 28 63 15 34 1020.6 1019.4 2.4
29/09:30pm 24.1 24.9 23.2 95 0.6 SE 24 35 13 19 1020.7 1019.5 0.2
29/09:00pm 23.9 24.2 22.2 90 1.1 SE 24 37 13 20 1020.7 1019.5 0.0
29/08:30pm 24.9 24.6 22.6 87 1.6 ESE 28 39 15 21 1020.2 1019.1 0.0
29/08:00pm 25.1 25.7 22.8 87 1.6 ESE 24 35 13 19 1020.2 1019.1 0.0
29/07:30pm 25.5 23.9 20.7 75 3.2 E 30 41 16 22 1019.9 1018.8 0.0
29/07:00pm 25.5 24.4 21.0 76 3.0 ESE 28 43 15 23 1019.5 1018.3 0.0
29/06:30pm 25.6 24.4 20.8 75 3.2 ESE 28 39 15 21 1019.4 1018.2 0.0
29/06:00pm 25.6 24.2 20.4 73 3.4 ESE 28 41 15 22 1019.1 1017.9 0.0
29/05:30pm 26.0 25.9 20.8 73 3.4 E 22 33 12 18 1018.9 1017.7 0.0
29/05:00pm 26.4 25.7 20.3 69 4.0 ESE 24 33 13 18 1018.6 1017.4 0.0
29/04:30pm 27.0 26.8 20.6 68 4.2 ESE 22 33 12 18 1018.5 1017.3 0.0
29/04:00pm 27.1 26.8 20.4 66 4.4 ESE 22 33 12 18 1018.3 1017.1 0.0
29/03:30pm 27.4 27.0 20.2 65 4.8 ESE 22 33 12 18 1018.2 1017.0 0.0
29/03:00pm 27.3 27.7 20.9 68 4.3 ESE 20 28 11 15 1018.4 1017.2 0.0
29/02:30pm 27.9 28.4 21.2 67 4.5 E 20 32 11 17 1018.5 1017.3 0.0
29/02:00pm 28.1 27.9 20.6 63 5.0 ESE 22 33 12 18 1018.5 1017.3 0.0
29/01:30pm 28.3 27.8 20.8 63 5.0 ESE 24 33 13 18 1018.9 1017.7 0.0
29/01:00pm 27.9 27.8 20.7 65 4.8 ESE 22 33 12 18 1019.3 1018.1 0.0
29/12:30pm 27.7 27.2 20.8 66 4.6 ESE 24 37 13 20 1019.4 1018.2 0.0
29/12:00pm 27.9 27.9 20.2 63 5.1 ENE 20 33 11 18 1019.7 1018.6 0.0
29/11:30am 27.7 27.6 20.0 63 5.1 ENE 20 33 11 18 1020.0 1018.9 0.0
29/11:00am 28.2 27.2 20.5 63 5.1 ENE 26 39 14 21 1020.2 1019.1 0.0
29/10:30am 27.9 28.3 20.7 65 4.8 NE 19 41 10 22 1020.5 1019.3 0.0
29/10:00am 27.6 30.5 22.5 74 3.5 E 11 22 6 12 1020.6 1019.4 0.0
29/09:30am 25.2 26.9 22.3 84 2.0 E 17 26 9 14 1020.7 1019.5 0.0
29/09:00am 24.5 26.9 21.6 84 1.9 E 11 24 6 13 1020.7 1019.5 0.4
29/08:30am 24.6 25.5 21.9 85 1.8 ENE 20 33 11 18 1020.4 1019.2 0.0
29/08:00am 26.5 27.1 21.0 72 3.7 E 19 35 10 19 1019.9 1018.8 0.0
29/07:30am 26.0 27.9 21.4 76 3.1 E 13 24 7 13 1019.5 1018.3 0.0
29/07:00am 25.8 27.6 21.2 76 3.1 E 13 24 7 13 1019.1 1017.9 0.0
29/06:30am 24.9 26.5 20.8 78 2.7 E 13 28 7 15 1018.9 1017.7 0.0
29/06:00am 24.7 26.9 20.4 77 2.8 E 9 20 5 11 1018.6 1017.4 0.0
29/05:30am 24.6 26.0 20.3 77 2.8 ENE 13 28 7 15 1018.3 1017.1 0.0
29/05:00am 24.6 26.2 20.7 79 2.6 E 13 20 7 11 1017.8 1016.6 0.0
29/04:30am 24.7 25.9 20.0 75 3.1 E 13 24 7 13 1017.6 1016.4 0.0
29/04:00am 24.6 27.0 20.9 80 2.4 E 9 17 5 9 1017.3 1016.1 0.0
29/03:30am 24.4 26.9 21.7 85 1.8 ENE 11 20 6 11 1017.3 1016.1 0.0
29/03:00am 24.8 26.9 20.9 79 2.6 E 11 20 6 11 1017.4 1016.2 0.0
29/02:30am 24.8 27.1 20.7 78 2.7 ENE 9 22 5 12 1017.5 1016.3 0.0
29/02:00am 24.8 26.6 20.3 76 2.9 E 11 24 6 13 1017.7 1016.5 0.0
29/01:30am 24.7 26.2 20.6 78 2.7 E 13 26 7 14 1017.9 1016.7 0.0
29/01:00am 24.8 26.8 20.7 78 2.7 E 11 26 6 14 1018.1 1016.9 0.0
29/12:30am 24.8 26.1 20.9 79 2.6 E 15 30 8 16 1018.3 1017.1 0.0
29/12:00am 25.0 25.6 21.1 79 2.6 E 19 28 10 15 1018.7 1017.5 0.0
 
Date/Time
EST
Temp
°C
App
Temp
°C
Dew
Point
Rel
Hum
%
Delta-T
°C
Wind Press
QNH
hPa
Press
MSL
hPa
Rain
since 9 am
mm
Dir
 
Spd
km/h
Gust
km/h
Spd
kts
Gust
kts
28/11:30pm 24.8 25.6 20.7 78 2.7 E 17 30 9 16 1018.9 1017.7 0.0
28/11:00pm 24.9 26.1 20.6 77 2.8 E 15 30 8 16 1019.1 1017.9 0.0
28/10:30pm 24.9 25.6 20.4 76 3.0 E 17 28 9 15 1019.3 1018.1 0.0
28/10:00pm 24.9 25.4 20.8 78 2.7 E 19 33 10 18 1019.2 1018.0 0.0
28/09:30pm 24.8 26.4 20.7 78 2.7 E 13 30 7 16 1019.1 1017.9 0.0
28/09:00pm 25.0 24.8 21.3 80 2.5 ESE 24 39 13 21 1019.0 1017.8 0.0
28/08:30pm 25.1 23.9 20.8 77 2.8 E 28 37 15 20 1018.9 1017.7 0.0
28/08:00pm 25.2 23.8 20.5 75 3.1 E 28 41 15 22 1018.7 1017.5 0.0
28/07:30pm 25.1 24.2 20.6 76 3.0 E 26 39 14 21 1018.4 1017.2 0.0
28/07:00pm 25.2 24.2 20.5 75 3.1 ESE 26 39 14 21 1018.0 1016.8 0.0
28/06:30pm 25.3 23.7 20.8 76 3.0 ESE 30 44 16 24 1017.6 1016.4 0.0
28/06:00pm 25.5 25.1 21.6 79 2.6 ESE 26 39 14 21 1017.3 1016.1 0.0
28/05:30pm 25.6 25.5 21.5 78 2.7 ESE 24 35 13 19 1017.1 1015.9 0.0
28/05:00pm 26.5 26.5 21.7 75 3.2 ESE 24 33 13 18 1016.8 1015.6 0.0
28/04:30pm 26.9 27.1 21.4 72 3.7 ESE 22 32 12 17 1016.8 1015.6 0.0
28/04:00pm 27.7 28.5 21.7 70 4.0 ESE 20 30 11 16 1016.8 1015.6 0.0
28/03:30pm 28.0 28.6 21.3 67 4.5 ESE 20 32 11 17 1016.8 1015.6 0.0
28/03:00pm 28.3 28.5 21.3 65 4.7 ESE 22 30 12 16 1016.9 1015.7 0.0
28/02:30pm 28.4 28.9 21.2 65 4.8 ESE 20 28 11 15 1017.0 1015.8 0.0
28/02:00pm 28.3 27.8 20.8 63 5.0 ESE 24 37 13 20 1017.3 1016.1 0.0
28/01:30pm 28.9 28.5 20.9 62 5.4 ESE 24 32 13 17 1017.6 1016.4 0.0
28/01:00pm 28.2 27.7 20.7 63 5.0 ESE 24 33 13 18 1017.7 1016.5 0.0
28/12:30pm 27.7 27.1 20.5 65 4.8 ESE 24 33 13 18 1018.2 1017.0 0.0
28/12:00pm 28.6 28.0 20.6 62 5.3 ESE 24 32 13 17 1018.6 1017.4 0.0
28/11:30am 27.7 26.9 20.0 63 5.1 ESE 24 32 13 17 1019.0 1017.8 0.0
28/11:00am 28.8 28.5 21.1 63 5.2 ESE 24 30 13 16 1019.4 1018.2 0.0
28/10:30am 28.1 27.8 20.4 63 5.1 ESE 22 33 12 18 1019.6 1018.4 0.0
28/10:00am 27.7 27.0 20.3 64 4.9 ESE 24 32 13 17 1019.6 1018.4 0.0
28/09:30am 27.3 27.5 20.6 67 4.4 ESE 20 30 11 16 1019.6 1018.4 0.0
28/09:00am 26.8 26.9 20.4 68 4.2 E 20 32 11 17 1019.5 1018.3 0.0
28/08:30am 26.7 27.1 21.0 71 3.8 ESE 20 30 11 16 1019.4 1018.2 0.0
28/08:00am 26.4 27.0 21.4 74 3.3 ESE 20 30 11 16 1019.1 1017.9 0.0
28/07:30am 25.5 26.6 21.2 77 2.9 ESE 17 22 9 12 1018.7 1017.5 0.0
28/07:00am 25.4 26.6 20.6 75 3.2 ESE 15 24 8 13 1018.3 1017.1 0.0
28/06:30am 24.5 26.1 20.0 76 2.9 E 11 17 6 9 1018.0 1016.8 0.0
28/06:00am 24.2 26.2 19.9 77 2.8 E 9 17 5 9 1017.7 1016.5 0.0
28/05:30am 24.3 25.5 20.6 80 2.4 E 15 20 8 11 1017.6 1016.4 0.0
28/05:00am 24.4 25.3 20.1 77 2.8 E 15 20 8 11 1017.4 1016.2 0.0
28/04:30am 24.2 26.2 19.9 77 2.8 E 9 19 5 10 1017.3 1016.1 0.0
28/04:00am 24.3 26.3 20.0 77 2.8 E 9 17 5 9 1017.0 1015.8 0.0
28/03:30am 24.1 26.1 20.0 78 2.7 E 9 19 5 10 1016.8 1015.6 0.0
28/03:00am 24.2 25.9 20.1 78 2.7 E 11 24 6 13 1017.0 1015.8 0.0
28/02:30am 24.1 26.3 20.4 80 2.4 ENE 9 15 5 8 1017.1 1015.9 0.0
28/02:00am 24.1 26.2 20.2 79 2.5 ENE 9 19 5 10 1017.2 1016.0 0.0
28/01:30am 24.3 26.6 20.6 80 2.4 ENE 9 19 5 10 1017.4 1016.2 0.0
28/01:00am 24.2 26.4 20.5 80 2.4 ENE 9 19 5 10 1017.6 1016.4 0.0
28/12:30am 24.6 26.7 20.9 80 2.4 ENE 11 17 6 9 1017.8 1016.6 0.0
28/12:00am 24.5 26.3 20.4 78 2.7 ENE 11 22 6 12 1018.1 1016.9 0.0
 
Date/Time
EST
Temp
°C
App
Temp
°C
Dew
Point
Rel
Hum
%
Delta-T
°C
Wind Press
QNH
hPa
Press
MSL
hPa
Rain
since 9 am
mm
Dir
 
Spd
km/h
Gust
km/h
Spd
kts
Gust
kts
27/11:30pm 24.4 25.8 20.3 78 2.7 ENE 13 24 7 13 1018.1 1016.9 0.0
27/11:00pm 24.6 26.0 20.3 77 2.8 ENE 13 20 7 11 1018.2 1017.0 0.0
27/10:30pm 24.6 25.6 20.3 77 2.8 ENE 15 24 8 13 1018.3 1017.1 0.0
27/10:00pm 24.6 25.6 20.3 77 2.8 ENE 15 24 8 13 1018.4 1017.2 0.0
27/09:30pm 24.6 25.6 20.3 77 2.8 ENE 15 24 8 13 1018.3 1017.1 0.0
27/09:00pm 24.7 25.6 20.8 79 2.6 ENE 17 28 9 15 1018.0 1016.8 0.0
27/08:30pm 24.8 25.8 21.1 80 2.5 ENE 17 28 9 15 1017.9 1016.7 0.0
27/08:00pm 24.8 26.7 21.3 81 2.3 ENE 13 22 7 12 1017.8 1016.6 0.0
27/07:30pm 24.8 27.1 21.3 81 2.3 E 11 20 6 11 1017.6 1016.4 0.0
27/07:00pm 24.9 26.7 21.2 80 2.5 ENE 13 20 7 11 1017.3 1016.1 0.0
27/06:30pm 25.0 26.9 21.3 80 2.5 ENE 13 22 7 12 1016.9 1015.7 0.0
27/06:00pm 25.3 26.6 21.6 80 2.5 ENE 17 28 9 15 1016.6 1015.4 0.0
27/05:30pm 25.9 28.2 21.3 76 3.1 E 11 20 6 11 1016.6 1015.4 0.0
27/05:00pm 26.6 27.6 21.1 72 3.7 E 17 24 9 13 1016.5 1015.3 0.0
27/04:30pm 27.1 28.2 20.4 66 4.4 ESE 15 22 8 12 1016.3 1015.1 0.0
27/04:00pm 27.4 28.0 21.0 68 4.3 ESE 19 24 10 13 1016.2 1015.0 0.0
27/03:30pm 27.9 29.1 21.4 67 4.4 ESE 17 24 9 13 1016.1 1014.9 0.0
27/03:00pm 27.8 28.8 21.1 67 4.5 ESE 17 22 9 12 1016.1 1014.9 0.0
27/02:30pm 28.3 29.3 21.1 65 4.8 ESE 17 24 9 13 1016.4 1015.2 0.0
27/02:00pm 28.6 29.6 21.1 64 5.0 ESE 17 22 9 12 1016.7 1015.5 0.0
27/01:30pm 28.2 29.7 21.2 65 4.7 ESE 15 24 8 13 1016.9 1015.7 0.0
27/01:00pm 29.1 30.7 22.1 66 4.8 ESE 17 26 9 14 1017.2 1016.0 0.0
27/12:30pm 28.7 30.6 22.0 67 4.5 ESE 15 26 8 14 1017.7 1016.5 0.0
27/12:00pm 28.4 29.5 21.2 65 4.8 ESE 17 24 9 13 1018.2 1017.0 0.0
27/11:30am 28.6 29.9 21.6 66 4.7 ESE 17 24 9 13 1018.8 1017.6 0.0
27/11:00am 28.8 30.7 22.1 67 4.5 ESE 15 24 8 13 1019.2 1018.0 0.0
27/10:30am 28.1 29.0 21.6 68 4.4 ESE 19 26 10 14 1019.7 1018.6 0.0
27/10:00am 28.7 30.2 21.2 64 5.0 E 15 24 8 13 1019.8 1018.7 0.0
27/09:30am 27.0 28.5 21.3 71 3.8 ENE 15 22 8 12 1019.9 1018.8 0.0
27/09:00am 27.2 28.8 21.5 71 3.8 NE 15 24 8 13 1019.9 1018.8 0.0
27/08:30am 26.6 28.3 20.9 71 3.8 ENE 13 20 7 11 1019.8 1018.7 0.0
27/08:00am 26.5 29.0 21.7 75 3.2 NE 11 19 6 10 1019.5 1018.3 0.0
27/07:30am 26.3 29.4 22.2 78 2.8 ENE 9 15 5 8 1019.3 1018.1 0.0
27/07:00am 25.0 28.1 21.5 81 2.3 ENE 7 15 4 8 1019.2 1018.0 0.0

Other Formats:

Comma delimited format used in spreadsheet applications
http://www.bom.gov.au/fwo/IDQ60801/IDQ60801.94372.axf

JavaScript Object Notation format (JSON) in row-major order
http://www.bom.gov.au/fwo/IDQ60801/IDQ60801.94372.json